sensor_id;sensor_type;location;lat;lon;timestamp;pressure;altitude;pressure_sealevel;temperature;humidity
69524;BME280;56723;42.694;23.286;2023-04-08T00:01:49;95162.19;;;3.73;75.86
69524;BME280;56723;42.694;23.286;2023-04-08T00:04:18;95150.31;;;3.72;75.86
69524;BME280;56723;42.694;23.286;2023-04-08T00:06:45;95146.63;;;3.65;75.95
69524;BME280;56723;42.694;23.286;2023-04-08T00:09:12;95153.38;;;3.66;76.13
69524;BME280;56723;42.694;23.286;2023-04-08T00:11:39;95155.72;;;3.69;76.22
69524;BME280;56723;42.694;23.286;2023-04-08T00:14:06;95158.28;;;3.69;76.80
69524;BME280;56723;42.694;23.286;2023-04-08T00:16:33;95157.34;;;3.70;76.91
69524;BME280;56723;42.694;23.286;2023-04-08T00:19:00;95147.09;;;3.70;76.61
69524;BME280;56723;42.694;23.286;2023-04-08T00:21:27;95149.16;;;3.76;76.56
69524;BME280;56723;42.694;23.286;2023-04-08T00:23:54;95146.34;;;3.79;76.78
69524;BME280;56723;42.694;23.286;2023-04-08T00:26:21;95149.16;;;3.76;77.57
69524;BME280;56723;42.694;23.286;2023-04-08T00:28:48;95148.34;;;3.76;77.67
69524;BME280;56723;42.694;23.286;2023-04-08T00:31:16;95151.25;;;3.82;77.40
69524;BME280;56723;42.694;23.286;2023-04-08T00:33:43;95148.31;;;3.87;77.02
69524;BME280;56723;42.694;23.286;2023-04-08T00:36:10;95148.88;;;3.91;76.62
69524;BME280;56723;42.694;23.286;2023-04-08T00:38:37;95134.69;;;3.87;75.14
69524;BME280;56723;42.694;23.286;2023-04-08T00:41:04;95144.84;;;3.88;76.04
69524;BME280;56723;42.694;23.286;2023-04-08T00:43:31;95162.38;;;3.93;76.77
69524;BME280;56723;42.694;23.286;2023-04-08T00:45:58;95159.13;;;3.91;77.63
69524;BME280;56723;42.694;23.286;2023-04-08T00:48:25;95161.03;;;3.89;78.66
69524;BME280;56723;42.694;23.286;2023-04-08T00:50:52;95151.81;;;3.86;79.10
69524;BME280;56723;42.694;23.286;2023-04-08T00:53:19;95163.94;;;3.84;79.55
69524;BME280;56723;42.694;23.286;2023-04-08T00:55:46;95152.88;;;3.83;78.92
69524;BME280;56723;42.694;23.286;2023-04-08T00:58:14;95160.22;;;3.88;78.96
69524;BME280;56723;42.694;23.286;2023-04-08T01:00:47;95158.94;;;3.82;79.40
69524;BME280;56723;42.694;23.286;2023-04-08T01:03:33;95142.53;;;3.74;79.41
69524;BME280;56723;42.694;23.286;2023-04-08T01:06:16;95164.75;;;3.85;79.15
69524;BME280;56723;42.694;23.286;2023-04-08T01:08:46;95164.06;;;3.82;79.77
69524;BME280;56723;42.694;23.286;2023-04-08T01:11:16;95165.94;;;3.80;79.80
69524;BME280;56723;42.694;23.286;2023-04-08T01:13:44;95170.13;;;3.81;80.39
69524;BME280;56723;42.694;23.286;2023-04-08T01:16:14;95172.56;;;3.83;79.94
69524;BME280;56723;42.694;23.286;2023-04-08T01:18:43;95162.19;;;3.73;80.45
69524;BME280;56723;42.694;23.286;2023-04-08T02:19:40;95193.22;;;3.03;86.98
69524;BME280;56723;42.694;23.286;2023-04-08T02:22:23;95193.00;;;3.06;87.14
69524;BME280;56723;42.694;23.286;2023-04-08T02:24:52;95188.81;;;3.05;87.33
69524;BME280;56723;42.694;23.286;2023-04-08T02:27:19;95196.03;;;3.11;87.29
69524;BME280;56723;42.694;23.286;2023-04-08T02:29:48;95196.47;;;3.17;86.97
69524;BME280;56723;42.694;23.286;2023-04-08T02:32:16;95197.78;;;3.22;86.84
69524;BME280;56723;42.694;23.286;2023-04-08T04:55:20;95207.84;;;2.79;92.73
69524;BME280;56723;42.694;23.286;2023-04-08T04:57:48;95216.47;;;2.78;92.76
69524;BME280;56723;42.694;23.286;2023-04-08T05:00:16;95216.94;;;2.83;92.32
69524;BME280;56723;42.694;23.286;2023-04-08T05:02:43;95208.31;;;2.84;92.45
69524;BME280;56723;42.694;23.286;2023-04-08T05:05:10;95228.34;;;2.90;91.74
69524;BME280;56723;42.694;23.286;2023-04-08T05:07:37;95222.19;;;2.93;91.71
69524;BME280;56723;42.694;23.286;2023-04-08T05:10:05;95222.44;;;3.01;91.45
69524;BME280;56723;42.694;23.286;2023-04-08T05:12:32;95217.19;;;3.02;90.95
69524;BME280;56723;42.694;23.286;2023-04-08T05:14:59;95216.75;;;3.08;91.01
69524;BME280;56723;42.694;23.286;2023-04-08T05:17:26;95226.53;;;3.15;90.73
69524;BME280;56723;42.694;23.286;2023-04-08T05:19:53;95219.31;;;3.20;90.64
69524;BME280;56723;42.694;23.286;2023-04-08T05:22:20;95217.09;;;3.26;90.51
69524;BME280;56723;42.694;23.286;2023-04-08T05:24:47;95216.53;;;3.34;90.00
69524;BME280;56723;42.694;23.286;2023-04-08T05:39:30;95215.22;;;3.62;87.97
69524;BME280;56723;42.694;23.286;2023-04-08T05:41:57;95219.41;;;3.74;87.35
69524;BME280;56723;42.694;23.286;2023-04-08T05:44:24;95224.19;;;3.78;87.10
69524;BME280;56723;42.694;23.286;2023-04-08T05:46:51;95220.31;;;3.84;87.03
69524;BME280;56723;42.694;23.286;2023-04-08T05:49:18;95216.47;;;3.90;86.42
69524;BME280;56723;42.694;23.286;2023-04-08T05:51:46;95221.81;;;3.98;85.61
69524;BME280;56723;42.694;23.286;2023-04-08T05:54:12;95211.09;;;4.04;85.33
69524;BME280;56723;42.694;23.286;2023-04-08T05:56:40;95208.63;;;4.02;85.61
69524;BME280;56723;42.694;23.286;2023-04-08T05:59:07;95217.34;;;4.11;85.01
69524;BME280;56723;42.694;23.286;2023-04-08T06:01:34;95209.16;;;4.17;84.52
69524;BME280;56723;42.694;23.286;2023-04-08T06:04:01;95201.72;;;4.14;83.92
69524;BME280;56723;42.694;23.286;2023-04-08T06:06:28;95209.63;;;4.22;84.39
69524;BME280;56723;42.694;23.286;2023-04-08T06:08:55;95209.81;;;4.30;83.48
69524;BME280;56723;42.694;23.286;2023-04-08T06:11:22;95210.72;;;4.40;83.14
69524;BME280;56723;42.694;23.286;2023-04-08T06:13:49;95210.91;;;4.48;82.77
69524;BME280;56723;42.694;23.286;2023-04-08T06:16:17;95210.41;;;4.55;81.63
69524;BME280;56723;42.694;23.286;2023-04-08T06:18:47;95205.88;;;4.58;81.14
69524;BME280;56723;42.694;23.286;2023-04-08T06:21:14;95203.19;;;4.60;81.43
69524;BME280;56723;42.694;23.286;2023-04-08T06:23:42;95207.53;;;4.69;81.33
69524;BME280;56723;42.694;23.286;2023-04-08T06:26:09;95207.06;;;4.75;79.62
69524;BME280;56723;42.694;23.286;2023-04-08T06:28:36;95209.31;;;4.89;79.37
69524;BME280;56723;42.694;23.286;2023-04-08T06:31:03;95204.16;;;4.89;79.64
69524;BME280;56723;42.694;23.286;2023-04-08T06:33:30;95211.00;;;5.00;79.33
69524;BME280;56723;42.694;23.286;2023-04-08T06:36:02;95209.16;;;5.11;78.73
69524;BME280;56723;42.694;23.286;2023-04-08T06:38:29;95211.66;;;5.22;78.67
69524;BME280;56723;42.694;23.286;2023-04-08T06:41:04;95211.59;;;5.34;77.57
69524;BME280;56723;42.694;23.286;2023-04-08T06:43:33;95222.81;;;5.42;76.53
69524;BME280;56723;42.694;23.286;2023-04-08T06:46:02;95212.84;;;5.49;75.81
69524;BME280;56723;42.694;23.286;2023-04-08T06:48:29;95213.41;;;5.52;75.19
69524;BME280;56723;42.694;23.286;2023-04-08T06:50:58;95216.25;;;5.59;75.43
69524;BME280;56723;42.694;23.286;2023-04-08T06:53:27;95217.13;;;5.69;75.78
69524;BME280;56723;42.694;23.286;2023-04-08T06:55:59;95218.91;;;5.78;74.32
69524;BME280;56723;42.694;23.286;2023-04-08T06:58:26;95214.88;;;5.85;74.02
69524;BME280;56723;42.694;23.286;2023-04-08T07:00:54;95217.91;;;5.90;73.71
69524;BME280;56723;42.694;23.286;2023-04-08T07:03:24;95218.16;;;5.97;72.39
69524;BME280;56723;42.694;23.286;2023-04-08T07:05:51;95212.75;;;6.00;72.14
69524;BME280;56723;42.694;23.286;2023-04-08T07:08:18;95200.72;;;6.01;71.91
69524;BME280;56723;42.694;23.286;2023-04-08T07:10:46;95212.13;;;6.08;71.87
69524;BME280;56723;42.694;23.286;2023-04-08T07:13:13;95207.34;;;6.13;71.46
69524;BME280;56723;42.694;23.286;2023-04-08T07:15:40;95215.63;;;6.16;71.44
69524;BME280;56723;42.694;23.286;2023-04-08T07:18:07;95226.06;;;6.24;71.47
69524;BME280;56723;42.694;23.286;2023-04-08T07:20:35;95207.34;;;6.13;71.27
69524;BME280;56723;42.694;23.286;2023-04-08T07:23:04;95225.25;;;6.24;71.55
69524;BME280;56723;42.694;23.286;2023-04-08T07:25:32;95224.44;;;6.33;71.69
69524;BME280;56723;42.694;23.286;2023-04-08T07:28:00;95231.50;;;6.41;71.77
69524;BME280;56723;42.694;23.286;2023-04-08T07:30:27;95223.66;;;6.42;71.22
69524;BME280;56723;42.694;23.286;2023-04-08T07:32:54;95225.53;;;6.50;71.50
69524;BME280;56723;42.694;23.286;2023-04-08T07:35:26;95231.50;;;6.50;70.98
69524;BME280;56723;42.694;23.286;2023-04-08T07:37:53;95236.94;;;6.47;70.96
69524;BME280;56723;42.694;23.286;2023-04-08T07:40:21;95238.81;;;6.55;71.28
69524;BME280;56723;42.694;23.286;2023-04-08T07:42:48;95240.47;;;6.66;71.58
69524;BME280;56723;42.694;23.286;2023-04-08T07:45:15;95233.69;;;6.74;71.08
69524;BME280;56723;42.694;23.286;2023-04-08T07:47:43;95245.31;;;6.88;71.00
69524;BME280;56723;42.694;23.286;2023-04-08T07:50:10;95243.44;;;7.00;70.53
69524;BME280;56723;42.694;23.286;2023-04-08T07:52:37;95237.56;;;7.07;69.70
69524;BME280;56723;42.694;23.286;2023-04-08T07:55:05;95250.31;;;7.09;69.65
69524;BME280;56723;42.694;23.286;2023-04-08T07:57:32;95246.91;;;7.08;69.29
69524;BME280;56723;42.694;23.286;2023-04-08T07:59:59;95240.28;;;7.15;69.29
69524;BME280;56723;42.694;23.286;2023-04-08T08:02:26;95250.59;;;7.15;68.96
69524;BME280;56723;42.694;23.286;2023-04-08T08:04:53;95257.09;;;7.19;69.14
69524;BME280;56723;42.694;23.286;2023-04-08T08:07:20;95262.63;;;7.24;68.49
69524;BME280;56723;42.694;23.286;2023-04-08T08:09:47;95262.34;;;7.27;68.92
69524;BME280;56723;42.694;23.286;2023-04-08T08:12:14;95251.91;;;7.29;69.13
69524;BME280;56723;42.694;23.286;2023-04-08T08:14:41;95253.66;;;7.38;68.63
69524;BME280;56723;42.694;23.286;2023-04-08T08:17:08;95248.75;;;7.45;68.32
69524;BME280;56723;42.694;23.286;2023-04-08T08:19:35;95238.44;;;7.45;68.69
69524;BME280;56723;42.694;23.286;2023-04-08T08:22:02;95243.31;;;7.48;67.68
69524;BME280;56723;42.694;23.286;2023-04-08T08:24:29;95246.84;;;7.47;67.45
69524;BME280;56723;42.694;23.286;2023-04-08T08:26:56;95256.88;;;7.50;67.99
69524;BME280;56723;42.694;23.286;2023-04-08T08:29:23;95262.81;;;7.60;68.20
69524;BME280;56723;42.694;23.286;2023-04-08T08:31:50;95262.63;;;7.71;68.33
69524;BME280;56723;42.694;23.286;2023-04-08T08:34:17;95253.22;;;7.80;68.62
69524;BME280;56723;42.694;23.286;2023-04-08T08:36:44;95251.81;;;7.95;67.81
69524;BME280;56723;42.694;23.286;2023-04-08T08:39:11;95251.81;;;7.95;67.12
69524;BME280;56723;42.694;23.286;2023-04-08T08:41:38;95254.63;;;8.02;67.82
69524;BME280;56723;42.694;23.286;2023-04-08T08:44:07;95243.59;;;8.09;67.08
69524;BME280;56723;42.694;23.286;2023-04-08T08:46:34;95246.69;;;8.13;66.50
69524;BME280;56723;42.694;23.286;2023-04-08T08:49:01;95248.31;;;8.14;66.79
69524;BME280;56723;42.694;23.286;2023-04-08T08:51:29;95248.53;;;8.20;65.75
69524;BME280;56723;42.694;23.286;2023-04-08T08:54:01;95257.19;;;8.29;65.64
69524;BME280;56723;42.694;23.286;2023-04-08T08:56:28;95252.13;;;8.37;65.92
69524;BME280;56723;42.694;23.286;2023-04-08T08:58:55;95254.81;;;8.45;64.80
69524;BME280;56723;42.694;23.286;2023-04-08T09:01:32;95253.28;;;8.52;64.59
69524;BME280;56723;42.694;23.286;2023-04-08T09:04:14;95258.94;;;8.56;63.62
69524;BME280;56723;42.694;23.286;2023-04-08T09:06:46;95259.16;;;8.45;63.92
69524;BME280;56723;42.694;23.286;2023-04-08T09:09:16;95260.56;;;8.57;64.17
69524;BME280;56723;42.694;23.286;2023-04-08T09:11:44;95253.72;;;8.65;63.53
69524;BME280;56723;42.694;23.286;2023-04-08T09:14:19;95255.53;;;8.91;63.24
69524;BME280;56723;42.694;23.286;2023-04-08T09:16:46;95254.56;;;9.10;61.59
69524;BME280;56723;42.694;23.286;2023-04-08T09:19:14;95253.38;;;9.22;61.01
69524;BME280;56723;42.694;23.286;2023-04-08T09:21:41;95247.50;;;9.37;60.75
69524;BME280;56723;42.694;23.286;2023-04-08T09:24:26;95249.00;;;9.48;59.00
69524;BME280;56723;42.694;23.286;2023-04-08T09:26:54;95251.66;;;9.56;59.54
69524;BME280;56723;42.694;23.286;2023-04-08T09:29:23;95228.53;;;9.55;59.20
69524;BME280;56723;42.694;23.286;2023-04-08T09:31:57;95248.38;;;9.80;58.40
69524;BME280;56723;42.694;23.286;2023-04-08T09:34:26;95236.13;;;9.90;58.28
69524;BME280;56723;42.694;23.286;2023-04-08T09:36:53;95240.22;;;10.01;56.00
69524;BME280;56723;42.694;23.286;2023-04-08T09:39:21;95239.19;;;10.28;55.81
69524;BME280;56723;42.694;23.286;2023-04-08T09:41:50;95227.94;;;10.53;54.73
69524;BME280;56723;42.694;23.286;2023-04-08T09:44:19;95230.72;;;10.68;53.72
69524;BME280;56723;42.694;23.286;2023-04-08T09:54:43;95216.41;;;11.45;48.79
69524;BME280;56723;42.694;23.286;2023-04-08T09:57:16;95212.00;;;11.62;48.27
69524;BME280;56723;42.694;23.286;2023-04-08T09:59:51;95206.41;;;11.89;48.13
69524;BME280;56723;42.694;23.286;2023-04-08T10:02:25;95212.97;;;11.61;48.58
69524;BME280;56723;42.694;23.286;2023-04-08T10:04:54;95201.28;;;11.65;48.02
69524;BME280;56723;42.694;23.286;2023-04-08T10:07:25;95209.72;;;11.51;49.91
69524;BME280;56723;42.694;23.286;2023-04-08T10:09:52;95204.56;;;11.42;51.03
69524;BME280;56723;42.694;23.286;2023-04-08T10:12:19;95209.06;;;11.57;49.49
69524;BME280;56723;42.694;23.286;2023-04-08T10:17:55;95198.97;;;11.70;48.60
69524;BME280;56723;42.694;23.286;2023-04-08T10:20:47;95199.31;;;11.83;47.74
69524;BME280;56723;42.694;23.286;2023-04-08T10:23:16;95203.47;;;11.92;47.81
69524;BME280;56723;42.694;23.286;2023-04-08T10:25:45;95200.03;;;12.00;46.44
69524;BME280;56723;42.694;23.286;2023-04-08T10:33:14;95188.03;;;11.99;47.04
69524;BME280;56723;42.694;23.286;2023-04-08T10:35:47;95190.66;;;11.91;46.91
69524;BME280;56723;42.694;23.286;2023-04-08T10:38:15;95189.25;;;11.80;47.67
69524;BME280;56723;42.694;23.286;2023-04-08T10:40:43;95177.97;;;11.49;47.91
69524;BME280;56723;42.694;23.286;2023-04-08T10:43:12;95173.28;;;11.44;47.99
69524;BME280;56723;42.694;23.286;2023-04-08T10:45:40;95175.38;;;11.40;49.17
69524;BME280;56723;42.694;23.286;2023-04-08T10:50:58;95176.19;;;11.41;48.17
69524;BME280;56723;42.694;23.286;2023-04-08T10:53:30;95167.91;;;11.45;48.52
69524;BME280;56723;42.694;23.286;2023-04-08T10:56:10;95168.91;;;11.44;48.26
69524;BME280;56723;42.694;23.286;2023-04-08T10:58:53;95170.78;;;11.59;48.89
69524;BME280;56723;42.694;23.286;2023-04-08T11:01:23;95166.84;;;11.79;47.06
69524;BME280;56723;42.694;23.286;2023-04-08T11:03:50;95160.75;;;11.56;46.85
69524;BME280;56723;42.694;23.286;2023-04-08T11:06:18;95153.34;;;11.44;47.23
69524;BME280;56723;42.694;23.286;2023-04-08T11:08:45;95154.47;;;11.42;47.30
69524;BME280;56723;42.694;23.286;2023-04-08T11:11:13;95151.72;;;11.43;47.33
69524;BME280;56723;42.694;23.286;2023-04-08T11:13:44;95147.19;;;11.37;47.63
69524;BME280;56723;42.694;23.286;2023-04-08T11:16:22;95141.16;;;11.45;47.36
69524;BME280;56723;42.694;23.286;2023-04-08T11:18:50;95146.66;;;11.50;48.24
69524;BME280;56723;42.694;23.286;2023-04-08T11:21:18;95138.56;;;11.45;47.54
69524;BME280;56723;42.694;23.286;2023-04-08T11:23:48;95131.44;;;11.47;47.01
69524;BME280;56723;42.694;23.286;2023-04-08T11:26:16;95137.69;;;11.61;47.05
69524;BME280;56723;42.694;23.286;2023-04-08T11:28:43;95126.53;;;11.91;46.06
69524;BME280;56723;42.694;23.286;2023-04-08T11:31:12;95125.19;;;12.03;45.17
69524;BME280;56723;42.694;23.286;2023-04-08T11:33:44;95120.97;;;12.02;45.65
69524;BME280;56723;42.694;23.286;2023-04-08T11:36:12;95113.13;;;12.10;44.40
69524;BME280;56723;42.694;23.286;2023-04-08T11:38:42;95121.72;;;12.11;44.39
69524;BME280;56723;42.694;23.286;2023-04-08T11:41:10;95113.81;;;12.27;43.89
69524;BME280;56723;42.694;23.286;2023-04-08T11:43:37;95114.50;;;12.44;43.08
69524;BME280;56723;42.694;23.286;2023-04-08T11:46:09;95103.56;;;12.57;42.75
69524;BME280;56723;42.694;23.286;2023-04-08T11:48:37;95109.38;;;12.59;42.73
69524;BME280;56723;42.694;23.286;2023-04-08T11:51:06;95106.56;;;12.83;42.70
69524;BME280;56723;42.694;23.286;2023-04-08T11:53:38;95095.13;;;13.07;41.25
69524;BME280;56723;42.694;23.286;2023-04-08T11:56:15;95102.28;;;12.90;41.31
69524;BME280;56723;42.694;23.286;2023-04-08T11:58:43;95097.13;;;12.82;41.06
69524;BME280;56723;42.694;23.286;2023-04-08T12:01:10;95083.88;;;12.39;41.26
69524;BME280;56723;42.694;23.286;2023-04-08T12:03:37;95097.38;;;12.35;42.06
69524;BME280;56723;42.694;23.286;2023-04-08T12:06:04;95095.81;;;12.26;41.72
69524;BME280;56723;42.694;23.286;2023-04-08T12:08:33;95097.44;;;12.04;42.06
69524;BME280;56723;42.694;23.286;2023-04-08T12:11:00;95086.63;;;11.92;42.42
69524;BME280;56723;42.694;23.286;2023-04-08T12:13:44;95075.66;;;11.74;42.69
69524;BME280;56723;42.694;23.286;2023-04-08T12:16:13;95085.13;;;11.67;43.48
69524;BME280;56723;42.694;23.286;2023-04-08T12:18:40;95086.59;;;11.61;43.85
69524;BME280;56723;42.694;23.286;2023-04-08T12:21:07;95087.31;;;11.47;44.44
69524;BME280;56723;42.694;23.286;2023-04-08T12:23:34;95081.34;;;11.38;45.19
69524;BME280;56723;42.694;23.286;2023-04-08T12:26:01;95085.53;;;11.48;45.35
69524;BME280;56723;42.694;23.286;2023-04-08T12:28:29;95084.44;;;11.73;45.03
69524;BME280;56723;42.694;23.286;2023-04-08T12:30:56;95079.88;;;11.83;43.94
69524;BME280;56723;42.694;23.286;2023-04-08T12:33:24;95081.16;;;11.87;43.91
69524;BME280;56723;42.694;23.286;2023-04-08T12:35:52;95072.72;;;11.85;43.75
69524;BME280;56723;42.694;23.286;2023-04-08T12:38:20;95081.03;;;11.81;44.50
69524;BME280;56723;42.694;23.286;2023-04-08T12:40:47;95082.22;;;11.62;45.05
69524;BME280;56723;42.694;23.286;2023-04-08T12:43:15;95066.50;;;11.24;45.49
69524;BME280;56723;42.694;23.286;2023-04-08T12:45:43;95071.09;;;11.06;46.54
69524;BME280;56723;42.694;23.286;2023-04-08T12:48:10;95075.03;;;10.86;47.22
69524;BME280;56723;42.694;23.286;2023-04-08T12:50:37;95067.56;;;10.83;47.33
69524;BME280;56723;42.694;23.286;2023-04-08T12:53:04;95076.97;;;10.84;47.43
69524;BME280;56723;42.694;23.286;2023-04-08T12:55:31;95084.09;;;10.82;47.01
69524;BME280;56723;42.694;23.286;2023-04-08T12:57:58;95091.91;;;10.57;47.67
69524;BME280;56723;42.694;23.286;2023-04-08T13:00:25;95100.66;;;10.56;47.57
69524;BME280;56723;42.694;23.286;2023-04-08T13:02:52;95105.81;;;10.24;48.61
69524;BME280;56723;42.694;23.286;2023-04-08T13:05:19;95105.63;;;10.01;50.29
69524;BME280;56723;42.694;23.286;2023-04-08T13:08:05;95105.34;;;10.20;53.47
69524;BME280;56723;42.694;23.286;2023-04-08T13:10:32;95090.31;;;10.32;50.02
69524;BME280;56723;42.694;23.286;2023-04-08T13:12:59;95088.66;;;10.71;50.82
69524;BME280;56723;42.694;23.286;2023-04-08T13:15:26;95084.81;;;11.15;51.82
69524;BME280;56723;42.694;23.286;2023-04-08T13:17:53;95080.69;;;11.36;52.52
69524;BME280;56723;42.694;23.286;2023-04-08T13:20:20;95068.94;;;11.57;51.23
69524;BME280;56723;42.694;23.286;2023-04-08T13:22:52;95064.56;;;11.88;52.43
69524;BME280;56723;42.694;23.286;2023-04-08T13:25:19;95061.53;;;11.85;48.92
69524;BME280;56723;42.694;23.286;2023-04-08T13:27:47;95071.78;;;11.78;50.11
69524;BME280;56723;42.694;23.286;2023-04-08T13:30:14;95073.94;;;11.66;50.97
69524;BME280;56723;42.694;23.286;2023-04-08T13:32:41;95082.88;;;11.56;49.76
69524;BME280;56723;42.694;23.286;2023-04-08T13:35:11;95071.91;;;11.45;50.94
69524;BME280;56723;42.694;23.286;2023-04-08T13:37:38;95075.50;;;11.36;49.42
69524;BME280;56723;42.694;23.286;2023-04-08T13:40:06;95078.78;;;11.30;50.46
69524;BME280;56723;42.694;23.286;2023-04-08T13:42:35;95063.72;;;11.26;49.84
69524;BME280;56723;42.694;23.286;2023-04-08T13:45:03;95069.00;;;11.49;50.02
69524;BME280;56723;42.694;23.286;2023-04-08T13:47:32;95070.47;;;11.74;49.49
69524;BME280;56723;42.694;23.286;2023-04-08T13:50:02;95071.56;;;12.10;48.37
69524;BME280;56723;42.694;23.286;2023-04-08T13:52:29;95058.88;;;12.38;47.26
69524;BME280;56723;42.694;23.286;2023-04-08T13:54:56;95057.88;;;12.77;45.73
69524;BME280;56723;42.694;23.286;2023-04-08T13:57:24;95052.41;;;13.01;43.83
69524;BME280;56723;42.694;23.286;2023-04-08T13:59:51;95054.09;;;13.17;42.92
69524;BME280;56723;42.694;23.286;2023-04-08T14:02:18;95059.44;;;13.45;42.56
69524;BME280;56723;42.694;23.286;2023-04-08T14:04:45;95059.34;;;13.38;41.46
69524;BME280;56723;42.694;23.286;2023-04-08T14:07:12;95051.72;;;13.22;42.10
69524;BME280;56723;42.694;23.286;2023-04-08T14:09:40;95054.22;;;13.45;41.01
69524;BME280;56723;42.694;23.286;2023-04-08T14:12:07;95053.88;;;13.33;41.33
69524;BME280;56723;42.694;23.286;2023-04-08T14:14:34;95045.25;;;13.18;43.19
69524;BME280;56723;42.694;23.286;2023-04-08T14:17:01;95055.22;;;13.14;44.55
69524;BME280;56723;42.694;23.286;2023-04-08T14:19:28;95057.44;;;12.88;47.12
69524;BME280;56723;42.694;23.286;2023-04-08T14:21:56;95054.00;;;12.58;48.74
69524;BME280;56723;42.694;23.286;2023-04-08T14:24:23;95053.53;;;12.55;49.09
69524;BME280;56723;42.694;23.286;2023-04-08T14:26:50;95057.00;;;12.47;49.58
69524;BME280;56723;42.694;23.286;2023-04-08T14:29:16;95057.63;;;12.49;48.83
69524;BME280;56723;42.694;23.286;2023-04-08T14:31:43;95064.28;;;12.66;48.11
69524;BME280;56723;42.694;23.286;2023-04-08T14:34:11;95061.69;;;12.66;48.01
69524;BME280;56723;42.694;23.286;2023-04-08T14:36:38;95052.38;;;12.57;48.57
69524;BME280;56723;42.694;23.286;2023-04-08T14:39:05;95061.44;;;12.24;48.67
69524;BME280;56723;42.694;23.286;2023-04-08T14:41:32;95059.63;;;12.01;49.92
69524;BME280;56723;42.694;23.286;2023-04-08T14:43:59;95071.34;;;11.97;51.52
69524;BME280;56723;42.694;23.286;2023-04-08T14:46:26;95061.88;;;11.73;52.68
69524;BME280;56723;42.694;23.286;2023-04-08T14:48:54;95069.91;;;11.25;52.95
69524;BME280;56723;42.694;23.286;2023-04-08T14:51:21;95069.22;;;10.59;57.24
69524;BME280;56723;42.694;23.286;2023-04-08T14:53:50;95077.16;;;10.58;56.55
69524;BME280;56723;42.694;23.286;2023-04-08T14:56:17;95072.81;;;10.26;58.27
69524;BME280;56723;42.694;23.286;2023-04-08T14:58:44;95088.50;;;10.49;58.48
69524;BME280;56723;42.694;23.286;2023-04-08T15:01:11;95084.47;;;10.46;58.14
69524;BME280;56723;42.694;23.286;2023-04-08T15:03:38;95084.03;;;9.84;60.78
69524;BME280;56723;42.694;23.286;2023-04-08T15:06:05;95076.13;;;9.86;61.67
69524;BME280;56723;42.694;23.286;2023-04-08T15:08:32;95078.25;;;10.06;60.98
69524;BME280;56723;42.694;23.286;2023-04-08T15:11:00;95074.28;;;10.20;60.64
69524;BME280;56723;42.694;23.286;2023-04-08T15:13:27;95080.25;;;10.21;60.84
69524;BME280;56723;42.694;23.286;2023-04-08T15:15:54;95091.41;;;10.21;59.35
69524;BME280;56723;42.694;23.286;2023-04-08T15:18:22;95085.25;;;10.14;60.59
69524;BME280;56723;42.694;23.286;2023-04-08T15:20:49;95082.22;;;10.19;59.35
69524;BME280;56723;42.694;23.286;2023-04-08T15:23:16;95082.22;;;10.19;59.96
69524;BME280;56723;42.694;23.286;2023-04-08T15:25:43;95079.75;;;10.17;59.64
69524;BME280;56723;42.694;23.286;2023-04-08T15:28:10;95085.91;;;10.24;58.70
69524;BME280;56723;42.694;23.286;2023-04-08T15:30:37;95096.28;;;10.24;57.61
69524;BME280;56723;42.694;23.286;2023-04-08T15:33:04;95092.56;;;10.19;57.47
69524;BME280;56723;42.694;23.286;2023-04-08T15:35:31;95091.72;;;10.18;57.88
69524;BME280;56723;42.694;23.286;2023-04-08T15:37:59;95093.16;;;10.13;58.81
69524;BME280;56723;42.694;23.286;2023-04-08T15:40:26;95088.63;;;10.06;58.89
69524;BME280;56723;42.694;23.286;2023-04-08T15:42:53;95093.78;;;10.06;60.17
69524;BME280;56723;42.694;23.286;2023-04-08T15:45:21;95090.56;;;10.04;60.64
69524;BME280;56723;42.694;23.286;2023-04-08T15:47:48;95095.25;;;10.01;60.64
69524;BME280;56723;42.694;23.286;2023-04-08T15:50:15;95082.31;;;9.93;60.40
69524;BME280;56723;42.694;23.286;2023-04-08T15:52:43;95096.38;;;9.98;63.03
69524;BME280;56723;42.694;23.286;2023-04-08T15:55:10;95089.72;;;9.88;66.00
69524;BME280;56723;42.694;23.286;2023-04-08T15:57:37;95100.88;;;9.80;68.64
69524;BME280;56723;42.694;23.286;2023-04-08T16:00:08;95093.41;;;9.69;71.06
69524;BME280;56723;42.694;23.286;2023-04-08T16:02:38;95100.81;;;9.56;72.17
69524;BME280;56723;42.694;23.286;2023-04-08T16:05:06;95109.84;;;9.52;72.67
69524;BME280;56723;42.694;23.286;2023-04-08T16:07:33;95104.31;;;9.38;72.35
69524;BME280;56723;42.694;23.286;2023-04-08T16:10:00;95109.63;;;9.37;75.26
69524;BME280;56723;42.694;23.286;2023-04-08T16:12:27;95102.69;;;9.37;75.94
69524;BME280;56723;42.694;23.286;2023-04-08T16:14:54;95103.78;;;9.35;72.30
69524;BME280;56723;42.694;23.286;2023-04-08T16:17:21;95096.19;;;9.33;72.24
69524;BME280;56723;42.694;23.286;2023-04-08T16:19:49;95112.56;;;9.42;71.36
69524;BME280;56723;42.694;23.286;2023-04-08T16:22:17;95107.38;;;9.42;71.79
69524;BME280;56723;42.694;23.286;2023-04-08T16:24:45;95104.66;;;9.44;69.62
69524;BME280;56723;42.694;23.286;2023-04-08T16:27:12;95106.53;;;9.33;71.91
69524;BME280;56723;42.694;23.286;2023-04-08T16:29:39;95104.53;;;9.19;72.73
69524;BME280;56723;42.694;23.286;2023-04-08T16:32:06;95117.66;;;9.26;74.07
69524;BME280;56723;42.694;23.286;2023-04-08T16:34:34;95111.78;;;9.16;73.96
69524;BME280;56723;42.694;23.286;2023-04-08T16:37:01;95123.75;;;9.17;73.99
69524;BME280;56723;42.694;23.286;2023-04-08T16:39:29;95138.19;;;9.27;75.71
69524;BME280;56723;42.694;23.286;2023-04-08T16:41:55;95139.78;;;9.28;76.18
69524;BME280;56723;42.694;23.286;2023-04-08T16:44:23;95136.38;;;9.20;76.08
69524;BME280;56723;42.694;23.286;2023-04-08T16:46:49;95142.72;;;9.33;77.90
69524;BME280;56723;42.694;23.286;2023-04-08T16:49:18;95150.53;;;9.42;76.22
69524;BME280;56723;42.694;23.286;2023-04-08T16:51:45;95152.94;;;9.35;75.59